createdAt,value
2022-09-16T00:01:47.939Z,14.30
2022-09-16T00:05:52.675Z,14.27
2022-09-16T00:09:54.658Z,14.23
2022-09-16T00:13:56.676Z,14.18
2022-09-16T00:17:59.623Z,14.13
2022-09-16T00:22:01.598Z,14.11
2022-09-16T00:26:04.491Z,14.09
2022-09-16T00:30:07.159Z,14.09
2022-09-16T00:34:09.135Z,14.07
2022-09-16T00:38:11.312Z,13.99
2022-09-16T00:42:13.318Z,13.96
2022-09-16T00:46:16.303Z,13.92
2022-09-16T00:50:41.687Z,13.84
2022-09-16T00:54:44.523Z,13.81
2022-09-16T00:58:50.570Z,13.77
2022-09-16T01:02:52.768Z,13.73
2022-09-16T01:06:55.052Z,13.73
2022-09-16T01:10:57.480Z,13.69
2022-09-16T01:15:00.716Z,13.67
2022-09-16T01:19:18.723Z,13.65
2022-09-16T01:23:23.780Z,13.64
2022-09-16T01:27:58.558Z,13.63
2022-09-16T01:32:16.219Z,13.65
2022-09-16T01:36:28.086Z,13.67
2022-09-16T01:41:01.404Z,13.69
2022-09-16T01:45:10.938Z,13.71
2022-09-16T01:49:26.279Z,13.73
2022-09-16T01:53:48.652Z,13.76
2022-09-16T01:57:53.510Z,13.76
2022-09-16T02:02:03.810Z,13.78
2022-09-16T02:06:12.867Z,13.81
2022-09-16T02:10:47.994Z,13.82
2022-09-16T02:14:54.896Z,13.78
2022-09-16T02:19:02.177Z,13.72
2022-09-16T02:23:07.601Z,13.69
2022-09-16T02:27:15.315Z,13.63
2022-09-16T02:31:20.304Z,13.62
2022-09-16T02:35:24.721Z,13.58
2022-09-16T02:39:31.641Z,13.59
2022-09-16T02:43:33.712Z,13.63
2022-09-16T02:48:00.543Z,13.62
2022-09-16T02:56:45.637Z,13.68
2022-09-16T03:00:51.106Z,13.69
2022-09-16T03:04:53.093Z,13.69
2022-09-16T03:08:58.658Z,13.68
2022-09-16T03:13:22.473Z,13.59
2022-09-16T03:17:33.561Z,13.53
2022-09-16T03:21:58.837Z,13.49
2022-09-16T03:26:04.488Z,13.43
2022-09-16T03:30:10.348Z,13.36
2022-09-16T03:34:28.264Z,13.31
2022-09-16T03:38:33.620Z,13.29
2022-09-16T03:42:39.244Z,13.26
2022-09-16T03:46:41.316Z,13.22
2022-09-16T03:50:43.336Z,13.15
2022-09-16T03:54:45.329Z,13.07
2022-09-16T03:58:48.006Z,13.01
2022-09-16T04:02:50.051Z,12.99
2022-09-16T04:06:52.181Z,12.96
2022-09-16T04:10:59.426Z,12.93
2022-09-16T04:15:01.373Z,12.96
2022-09-16T04:19:04.077Z,12.95
2022-09-16T04:23:06.065Z,12.93
2022-09-16T04:27:08.023Z,12.97
2022-09-16T04:31:14.706Z,13.04
2022-09-16T04:35:19.423Z,13.14
2022-09-16T04:39:21.459Z,13.20
2022-09-16T04:43:23.476Z,13.21
2022-09-16T04:47:25.556Z,13.17
2022-09-16T04:51:28.545Z,13.22
2022-09-16T04:55:31.530Z,13.16
2022-09-16T04:59:33.550Z,13.01
2022-09-16T05:03:35.569Z,12.92
2022-09-16T05:07:37.568Z,12.84
2022-09-16T05:11:40.782Z,12.80
2022-09-16T05:15:44.661Z,12.77
2022-09-16T05:19:48.479Z,12.79
2022-09-16T05:23:50.871Z,12.84
2022-09-16T05:27:52.866Z,13.01
2022-09-16T05:31:54.931Z,13.22
2022-09-16T05:36:07.384Z,13.31
2022-09-16T05:40:09.461Z,13.28
2022-09-16T05:44:12.142Z,13.26
2022-09-16T05:48:14.112Z,13.34
2022-09-16T05:52:16.120Z,13.53
2022-09-16T05:56:24.459Z,13.79
2022-09-16T06:00:26.432Z,14.10
2022-09-16T06:04:28.490Z,14.26
2022-09-16T06:08:32.707Z,14.22
2022-09-16T06:12:34.690Z,14.19
2022-09-16T06:16:37.303Z,14.40
2022-09-16T06:20:39.260Z,14.66
2022-09-16T06:24:41.416Z,14.74
2022-09-16T06:28:44.202Z,14.55
2022-09-16T06:32:46.208Z,14.45
2022-09-16T06:36:48.254Z,14.40
2022-09-16T06:40:50.471Z,14.30
2022-09-16T06:44:52.513Z,14.42
2022-09-16T06:48:58.511Z,14.55
2022-09-16T06:53:02.428Z,14.60
2022-09-16T06:57:06.605Z,14.86
2022-09-16T07:01:17.254Z,15.11
2022-09-16T07:05:19.238Z,15.58
2022-09-16T07:09:21.219Z,15.76
2022-09-16T07:13:23.209Z,15.53
2022-09-16T07:17:27.284Z,15.21
2022-09-16T07:21:30.387Z,14.86
2022-09-16T07:25:35.793Z,14.49
2022-09-16T07:29:37.994Z,14.39
2022-09-16T07:33:42.107Z,14.39
2022-09-16T07:37:44.079Z,14.46
2022-09-16T07:41:48.376Z,14.49
2022-09-16T07:45:58.059Z,14.62
2022-09-16T07:50:00.252Z,14.66
2022-09-16T07:54:08.026Z,14.68
2022-09-16T07:58:10.011Z,14.81
2022-09-16T08:02:12.201Z,15.09
2022-09-16T08:06:23.113Z,15.06
2022-09-16T08:10:27.233Z,14.93
2022-09-16T08:14:31.483Z,14.93
2022-09-16T08:18:33.781Z,15.06
2022-09-16T08:22:35.791Z,15.19
2022-09-16T08:26:38.153Z,15.30
2022-09-16T08:30:41.052Z,15.38
2022-09-16T08:34:43.102Z,15.38
2022-09-16T08:38:46.152Z,15.40
2022-09-16T08:43:16.901Z,15.56
2022-09-16T08:47:28.518Z,15.56
2022-09-16T08:51:31.402Z,15.49
2022-09-16T08:55:46.703Z,15.51
2022-09-16T08:59:54.820Z,15.56
2022-09-16T09:03:57.322Z,15.56
2022-09-16T09:08:23.311Z,15.59
2022-09-16T09:12:28.792Z,15.65
2022-09-16T09:16:37.063Z,15.82
2022-09-16T09:21:00.763Z,15.99
2022-09-16T09:25:26.747Z,16.26
2022-09-16T09:30:03.560Z,16.40
2022-09-16T09:34:31.439Z,16.23
2022-09-16T09:38:49.968Z,15.86
2022-09-16T09:43:34.215Z,15.80
2022-09-16T09:47:43.030Z,15.98
2022-09-16T09:51:51.050Z,16.26
2022-09-16T09:56:00.345Z,16.68
2022-09-16T10:00:14.645Z,17.07
2022-09-16T10:04:17.069Z,17.34
2022-09-16T10:08:26.135Z,17.36
2022-09-16T10:12:35.985Z,17.34
2022-09-16T10:16:38.199Z,17.20
2022-09-16T10:20:44.259Z,17.09
2022-09-16T10:24:54.729Z,16.88
2022-09-16T10:29:14.980Z,16.73
2022-09-16T10:33:30.640Z,16.60
2022-09-16T10:37:32.667Z,16.56
2022-09-16T10:41:42.494Z,16.53
2022-09-16T10:45:50.510Z,16.62
2022-09-16T10:49:56.789Z,16.62
2022-09-16T10:54:05.889Z,16.67
2022-09-16T10:58:07.801Z,16.79
2022-09-16T11:02:45.822Z,17.35
2022-09-16T11:06:53.413Z,17.79
2022-09-16T11:11:11.188Z,17.88
2022-09-16T11:15:38.405Z,17.86
2022-09-16T11:20:02.372Z,17.70
2022-09-16T11:24:17.244Z,17.67
2022-09-16T11:29:03.825Z,17.66
2022-09-16T11:33:27.690Z,17.31
2022-09-16T11:37:49.494Z,16.78
2022-09-16T11:41:59.956Z,16.57
2022-09-16T11:46:23.575Z,16.76
2022-09-16T11:50:34.720Z,17.08
2022-09-16T11:54:47.543Z,17.15
2022-09-16T11:59:00.544Z,17.16
2022-09-16T12:03:20.119Z,16.82
2022-09-16T12:07:35.940Z,16.66
2022-09-16T12:12:06.102Z,16.62
2022-09-16T12:16:23.032Z,16.64
2022-09-16T12:20:31.631Z,16.56
2022-09-16T12:24:51.340Z,16.48
2022-09-16T12:29:03.722Z,16.52
2022-09-16T12:33:27.269Z,16.64
2022-09-16T12:37:39.278Z,16.79
2022-09-16T12:42:00.024Z,16.96
2022-09-16T12:46:35.210Z,16.96
2022-09-16T12:51:08.251Z,17.16
2022-09-16T12:56:01.098Z,17.20
2022-09-16T13:00:13.172Z,17.64
2022-09-16T13:04:22.266Z,18.05
2022-09-16T13:08:31.370Z,18.46
2022-09-16T13:12:41.522Z,18.94
2022-09-16T13:16:56.503Z,19.50
2022-09-16T13:21:01.731Z,19.72
2022-09-16T13:25:28.114Z,19.80
2022-09-16T13:29:44.299Z,19.41
2022-09-16T13:33:49.194Z,19.19
2022-09-16T13:37:54.559Z,19.22
2022-09-16T13:41:56.887Z,19.08
2022-09-16T13:46:08.416Z,18.78
2022-09-16T13:50:15.890Z,18.38
2022-09-16T13:54:29.110Z,18.21
2022-09-16T13:58:38.769Z,18.17
2022-09-16T14:03:05.207Z,18.18
2022-09-16T14:07:12.950Z,18.16
2022-09-16T14:11:31.509Z,18.18
2022-09-16T14:15:46.862Z,18.24
2022-09-16T14:19:52.611Z,18.37
2022-09-16T14:28:13.701Z,18.03
2022-09-16T14:32:15.957Z,17.81
2022-09-16T14:36:40.377Z,17.87
2022-09-16T14:40:42.446Z,18.11
2022-09-16T14:44:51.088Z,18.33
2022-09-16T14:48:53.193Z,17.58
2022-09-16T14:52:57.982Z,16.75
2022-09-16T14:57:03.410Z,16.08
2022-09-16T15:01:12.380Z,15.53
2022-09-16T15:05:20.973Z,15.00
2022-09-16T15:09:51.850Z,14.61
2022-09-16T15:13:54.476Z,14.22
2022-09-16T15:18:09.585Z,14.23
2022-09-16T15:22:15.113Z,14.50
2022-09-16T15:26:22.940Z,14.88
2022-09-16T15:30:26.811Z,15.33
2022-09-16T15:34:28.972Z,15.54
2022-09-16T15:38:42.180Z,15.51
2022-09-16T15:43:01.410Z,15.35
2022-09-16T15:47:03.447Z,14.97
2022-09-16T15:51:10.446Z,14.68
2022-09-16T15:55:12.633Z,14.35
2022-09-16T15:59:27.611Z,14.15
2022-09-16T16:03:51.262Z,14.05
2022-09-16T16:07:56.827Z,14.14
2022-09-16T16:12:19.961Z,14.27
2022-09-16T16:16:22.613Z,14.37
2022-09-16T16:20:24.773Z,14.37
2022-09-16T16:24:29.274Z,14.37
2022-09-16T16:28:31.556Z,14.35
2022-09-16T16:32:34.917Z,14.23
2022-09-16T16:36:36.866Z,14.08
2022-09-16T16:40:38.949Z,13.99
2022-09-16T16:44:41.771Z,13.87
2022-09-16T16:48:44.301Z,13.75
2022-09-16T16:52:50.241Z,13.63
2022-09-16T16:56:53.233Z,13.48
2022-09-16T17:00:55.214Z,13.35
2022-09-16T17:04:57.221Z,13.19
2022-09-16T17:08:59.361Z,13.07
2022-09-16T17:13:01.443Z,12.98
2022-09-16T17:17:03.474Z,12.84
2022-09-16T17:21:08.589Z,12.72
2022-09-16T17:25:10.658Z,12.59
2022-09-16T17:29:15.938Z,12.42
2022-09-16T17:33:18.372Z,12.33
2022-09-16T17:37:20.387Z,12.27
2022-09-16T17:41:22.523Z,12.17
2022-09-16T17:45:24.499Z,12.09
2022-09-16T17:49:27.135Z,12.01
2022-09-16T17:53:29.227Z,11.91
2022-09-16T17:57:33.291Z,11.79
2022-09-16T18:01:35.623Z,11.70
2022-09-16T18:05:38.470Z,11.64
2022-09-16T18:09:40.559Z,11.60
2022-09-16T18:13:43.398Z,11.58
2022-09-16T18:17:45.822Z,11.54
2022-09-16T18:21:47.835Z,11.51
2022-09-16T18:25:49.826Z,11.50
2022-09-16T18:29:51.859Z,11.48
2022-09-16T18:33:55.006Z,11.46
2022-09-16T18:37:57.221Z,11.44
2022-09-16T18:41:59.286Z,11.39
2022-09-16T18:46:26.299Z,11.36
2022-09-16T18:50:29.101Z,11.34
2022-09-16T18:54:31.219Z,11.31
2022-09-16T18:58:33.215Z,11.33
2022-09-16T19:02:35.256Z,11.30
2022-09-16T19:06:43.270Z,11.30
2022-09-16T19:10:45.614Z,11.27
2022-09-16T19:14:47.677Z,11.25
2022-09-16T19:18:51.577Z,11.19
2022-09-16T19:22:53.561Z,11.15
2022-09-16T19:26:55.933Z,11.09
2022-09-16T19:31:05.650Z,11.02
2022-09-16T19:35:07.743Z,10.93
2022-09-16T19:39:10.836Z,10.87
2022-09-16T19:43:13.404Z,10.82
2022-09-16T19:47:15.380Z,10.76
2022-09-16T19:51:19.708Z,10.73
2022-09-16T19:55:21.695Z,10.67
2022-09-16T19:59:23.671Z,10.63
2022-09-16T20:03:28.039Z,10.58
2022-09-16T20:07:30.762Z,10.56
2022-09-16T20:11:35.446Z,10.55
2022-09-16T20:15:37.397Z,10.64
2022-09-16T20:19:39.378Z,10.80
2022-09-16T20:23:41.845Z,10.94
2022-09-16T20:27:43.956Z,11.04
2022-09-16T20:31:47.972Z,11.06
2022-09-16T20:35:50.012Z,11.11
2022-09-16T20:39:52.039Z,11.16
2022-09-16T20:43:54.053Z,11.21
2022-09-16T20:47:56.105Z,11.20
2022-09-16T20:51:58.097Z,11.26
2022-09-16T20:56:02.090Z,11.25
2022-09-16T21:00:04.742Z,11.12
2022-09-16T21:04:11.070Z,11.02
2022-09-16T21:08:13.032Z,10.88
2022-09-16T21:12:16.501Z,10.75
2022-09-16T21:16:18.522Z,10.66
2022-09-16T21:20:21.264Z,10.61
2022-09-16T21:24:23.331Z,10.60
2022-09-16T21:28:25.346Z,10.68
2022-09-16T21:32:27.290Z,10.63
2022-09-16T21:36:30.313Z,10.54
2022-09-16T21:40:35.363Z,10.50
2022-09-16T21:44:39.715Z,10.46
2022-09-16T21:48:44.638Z,10.48
2022-09-16T21:52:46.613Z,10.48
2022-09-16T21:56:49.730Z,10.42
2022-09-16T22:00:52.175Z,10.34
2022-09-16T22:04:54.208Z,10.26
2022-09-16T22:08:58.667Z,10.22
2022-09-16T22:13:01.145Z,10.16
2022-09-16T22:17:03.180Z,10.16
2022-09-16T22:21:08.709Z,10.16
2022-09-16T22:25:10.678Z,10.18
2022-09-16T22:29:13.097Z,10.25
2022-09-16T22:33:15.113Z,10.34
2022-09-16T22:37:17.077Z,10.38
2022-09-16T22:41:19.832Z,10.37
2022-09-16T22:45:21.787Z,10.30
2022-09-16T22:49:23.830Z,10.24
2022-09-16T22:53:27.284Z,10.25
2022-09-16T22:57:29.720Z,10.33
2022-09-16T23:01:38.390Z,10.39
2022-09-16T23:05:40.786Z,10.39
2022-09-16T23:09:42.837Z,10.35
2022-09-16T23:13:45.524Z,10.34
2022-09-16T23:17:47.676Z,10.36
2022-09-16T23:21:50.011Z,10.27
2022-09-16T23:25:52.127Z,10.17
2022-09-16T23:29:54.624Z,10.12
2022-09-16T23:33:57.616Z,10.09
2022-09-16T23:37:59.613Z,10.08
2022-09-16T23:42:01.582Z,10.05
2022-09-16T23:46:04.307Z,10.01
2022-09-16T23:50:06.603Z,9.96
2022-09-16T23:54:08.786Z,9.95
2022-09-16T23:58:11.793Z,10.02
